createdAt,value
2022-08-11T00:01:55.898Z,21.74
2022-08-11T00:04:25.069Z,21.52
2022-08-11T00:06:52.278Z,21.58
2022-08-11T00:09:21.301Z,21.53
2022-08-11T00:11:53.398Z,21.06
2022-08-11T00:14:37.691Z,21.48
2022-08-11T00:17:08.416Z,21.15
2022-08-11T00:20:15.153Z,21.36
2022-08-11T00:22:30.175Z,21.38
2022-08-11T00:25:02.149Z,21.42
2022-08-11T00:27:36.898Z,21.18
2022-08-11T00:30:11.723Z,21.40
2022-08-11T00:32:41.770Z,21.37
2022-08-11T00:35:50.978Z,21.08
2022-08-11T00:38:00.307Z,20.92
2022-08-11T00:40:38.842Z,20.86
2022-08-11T00:43:23.169Z,21.14
2022-08-11T00:46:01.794Z,21.26
2022-08-11T00:48:33.894Z,21.23
2022-08-11T00:51:10.607Z,21.21
2022-08-11T00:53:58.607Z,21.07
2022-08-11T00:56:47.330Z,21.15
2022-08-11T00:59:44.360Z,21.04
2022-08-11T01:02:17.853Z,20.91
2022-08-11T01:05:17.125Z,21.02
2022-08-11T01:08:03.237Z,20.98
2022-08-11T01:10:45.513Z,20.96
2022-08-11T01:13:17.114Z,20.96
2022-08-11T01:16:05.553Z,20.74
2022-08-11T01:18:57.856Z,20.92
2022-08-11T01:22:03.143Z,20.90
2022-08-11T01:25:03.319Z,20.86
2022-08-11T01:27:51.979Z,20.82
2022-08-11T01:30:48.521Z,20.75
2022-08-11T01:33:33.500Z,20.74
2022-08-11T01:36:56.669Z,20.70
2022-08-11T01:39:49.207Z,20.66
2022-08-11T01:43:12.500Z,20.62
2022-08-11T01:46:00.790Z,20.19
2022-08-11T01:48:40.975Z,20.51
2022-08-11T01:52:03.192Z,20.47
2022-08-11T01:54:42.751Z,19.93
2022-08-11T01:57:44.681Z,20.08
2022-08-11T02:00:22.521Z,20.02
2022-08-11T02:03:24.741Z,20.40
2022-08-11T02:06:54.439Z,20.36
2022-08-11T02:09:57.045Z,20.12
2022-08-11T02:12:55.496Z,20.15
2022-08-11T02:15:34.770Z,20.10
2022-08-11T02:18:47.840Z,20.25
2022-08-11T02:21:35.664Z,20.24
2022-08-11T02:24:11.116Z,19.55
2022-08-11T02:26:44.475Z,20.01
2022-08-11T02:29:33.613Z,20.14
2022-08-11T02:32:39.072Z,20.10
2022-08-11T02:35:27.164Z,20.05
2022-08-11T02:38:15.729Z,20.00
2022-08-11T02:40:48.720Z,19.95
2022-08-11T02:43:32.958Z,19.57
2022-08-11T02:46:42.850Z,19.89
2022-08-11T02:49:37.463Z,19.46
2022-08-11T02:52:14.844Z,19.85
2022-08-11T02:55:03.345Z,19.57
2022-08-11T02:57:40.933Z,19.83
2022-08-11T03:00:13.632Z,19.65
2022-08-11T03:03:02.869Z,19.36
2022-08-11T03:05:43.042Z,19.82
2022-08-11T03:08:51.975Z,19.57
2022-08-11T03:11:50.335Z,19.68
2022-08-11T03:14:44.419Z,19.72
2022-08-11T03:17:30.130Z,19.69
2022-08-11T03:20:06.666Z,19.68
2022-08-11T03:23:04.428Z,19.17
2022-08-11T03:26:14.825Z,19.54
2022-08-11T03:28:50.722Z,19.60
2022-08-11T03:31:36.453Z,19.58
2022-08-11T03:34:09.170Z,19.19
2022-08-11T03:36:54.465Z,19.56
2022-08-11T03:40:11.310Z,19.35
2022-08-11T03:42:53.354Z,19.53
2022-08-11T03:45:31.774Z,19.28
2022-08-11T03:48:18.706Z,19.46
2022-08-11T03:51:15.580Z,19.41
2022-08-11T03:53:59.291Z,19.38
2022-08-11T03:57:16.017Z,19.34
2022-08-11T04:00:10.293Z,19.29
2022-08-11T04:03:31.065Z,19.27
2022-08-11T04:06:22.466Z,19.22
2022-08-11T04:09:31.820Z,19.21
2022-08-11T04:12:37.172Z,19.20
2022-08-11T04:16:19.803Z,19.18
2022-08-11T04:19:41.310Z,19.13
2022-08-11T04:22:31.662Z,19.13
2022-08-11T04:25:24.378Z,19.11
2022-08-11T04:28:29.165Z,19.09
2022-08-11T04:31:44.124Z,19.09
2022-08-11T04:34:32.975Z,19.06
2022-08-11T04:37:39.002Z,19.05
2022-08-11T04:40:35.417Z,19.04
2022-08-11T04:44:02.159Z,19.02
2022-08-11T04:47:02.774Z,18.99
2022-08-11T04:50:00.396Z,18.82
2022-08-11T04:52:59.076Z,18.99
2022-08-11T04:55:51.637Z,18.99
2022-08-11T04:58:59.000Z,18.98
2022-08-11T05:01:44.129Z,18.96
2022-08-11T05:05:20.286Z,18.96
2022-08-11T05:08:36.106Z,18.92
2022-08-11T05:11:23.790Z,18.93
2022-08-11T05:14:18.740Z,18.78
2022-08-11T05:17:17.137Z,18.93
2022-08-11T05:20:06.902Z,18.80
2022-08-11T05:22:53.820Z,18.55
2022-08-11T05:26:43.029Z,18.76
2022-08-11T05:29:19.188Z,18.81
2022-08-11T05:32:08.286Z,18.71
2022-08-11T05:34:55.707Z,18.77
2022-08-11T05:37:34.660Z,18.87
2022-08-11T05:40:29.570Z,18.94
2022-08-11T05:43:27.908Z,19.07
2022-08-11T05:46:18.794Z,19.07
2022-08-11T05:49:04.328Z,18.67
2022-08-11T05:52:05.700Z,19.09
2022-08-11T05:55:06.921Z,19.07
2022-08-11T05:57:39.563Z,18.81
2022-08-11T06:00:19.753Z,19.00
2022-08-11T06:02:57.281Z,18.79
2022-08-11T06:05:25.198Z,19.15
2022-08-11T06:07:54.771Z,18.44
2022-08-11T06:10:37.768Z,19.22
2022-08-11T06:13:07.597Z,19.13
2022-08-11T06:15:46.943Z,19.11
2022-08-11T06:18:14.659Z,19.29
2022-08-11T06:20:50.185Z,19.01
2022-08-11T06:23:23.190Z,18.92
2022-08-11T06:25:53.324Z,19.43
2022-08-11T06:28:33.038Z,19.48
2022-08-11T06:31:01.019Z,19.39
2022-08-11T06:33:39.801Z,19.39
2022-08-11T06:36:24.081Z,18.84
2022-08-11T06:39:23.467Z,19.65
2022-08-11T06:42:04.744Z,19.15
2022-08-11T06:45:18.190Z,19.23
2022-08-11T06:47:48.004Z,19.19
2022-08-11T06:50:39.342Z,19.76
2022-08-11T06:53:10.797Z,19.92
2022-08-11T06:55:59.119Z,19.90
2022-08-11T06:58:52.628Z,20.15
2022-08-11T07:02:11.591Z,20.68
2022-08-11T07:04:51.866Z,20.75
2022-08-11T07:08:33.180Z,21.22
2022-08-11T07:12:08.259Z,21.60
2022-08-11T07:14:58.260Z,21.65
2022-08-11T07:17:30.575Z,22.16
2022-08-11T07:20:20.620Z,21.76
2022-08-11T07:23:16.483Z,22.49
2022-08-11T07:26:19.689Z,22.51
2022-08-11T07:28:57.055Z,22.97
2022-08-11T07:31:33.068Z,23.24
2022-08-11T07:34:17.583Z,23.39
2022-08-11T07:36:59.152Z,23.56
2022-08-11T07:39:29.232Z,23.44
2022-08-11T07:42:00.672Z,22.63
2022-08-11T07:44:35.158Z,23.42
2022-08-11T07:47:21.784Z,23.94
2022-08-11T07:50:08.230Z,23.94
2022-08-11T07:52:38.423Z,24.13
2022-08-11T07:55:15.243Z,24.13
2022-08-11T07:58:15.178Z,24.52
2022-08-11T08:01:10.604Z,24.36
2022-08-11T08:04:06.636Z,24.79
2022-08-11T08:06:52.396Z,24.81
2022-08-11T08:09:38.863Z,24.90
2022-08-11T08:12:24.878Z,24.65
2022-08-11T08:15:10.896Z,25.07
2022-08-11T08:18:09.477Z,24.84
2022-08-11T08:20:52.302Z,24.98
2022-08-11T08:23:36.008Z,24.98
2022-08-11T08:26:05.169Z,25.14
2022-08-11T08:28:32.806Z,25.32
2022-08-11T08:31:00.395Z,25.55
2022-08-11T08:33:30.906Z,25.58
2022-08-11T08:36:12.400Z,25.28
2022-08-11T08:38:50.492Z,25.71
2022-08-11T08:41:25.881Z,25.81
2022-08-11T08:43:55.790Z,25.23
2022-08-11T08:46:30.168Z,25.65
2022-08-11T08:48:57.277Z,25.60
2022-08-11T08:52:01.180Z,25.71
2022-08-11T08:54:34.145Z,26.11
2022-08-11T08:57:03.142Z,25.92
2022-08-11T08:59:47.549Z,26.42
2022-08-11T09:02:17.923Z,26.21
2022-08-11T09:04:45.946Z,26.50
2022-08-11T09:07:15.573Z,26.74
2022-08-11T09:09:49.841Z,26.60
2022-08-11T09:12:36.547Z,26.80
2022-08-11T09:15:08.203Z,26.67
2022-08-11T09:17:48.389Z,27.06
2022-08-11T09:20:24.971Z,26.88
2022-08-11T09:24:06.800Z,26.97
2022-08-11T09:26:20.542Z,26.99
2022-08-11T09:28:49.842Z,27.02
2022-08-11T09:31:17.304Z,27.27
2022-08-11T09:33:44.876Z,27.39
2022-08-11T09:36:31.855Z,26.85
2022-08-11T09:39:17.534Z,27.28
2022-08-11T09:42:01.880Z,27.27
2022-08-11T09:44:51.009Z,26.95
2022-08-11T09:47:25.992Z,27.50
2022-08-11T09:49:56.645Z,27.67
2022-08-11T09:52:23.634Z,27.39
2022-08-11T09:54:50.700Z,27.32
2022-08-11T09:57:40.801Z,27.43
2022-08-11T10:00:13.335Z,27.73
2022-08-11T10:02:48.764Z,27.76
2022-08-11T10:05:36.467Z,27.72
2022-08-11T10:08:04.427Z,27.57
2022-08-11T10:10:31.663Z,27.81
2022-08-11T10:13:02.651Z,28.04
2022-08-11T10:15:38.499Z,27.86
2022-08-11T10:18:29.014Z,27.61
2022-08-11T10:21:09.871Z,28.15
2022-08-11T10:24:00.090Z,28.08
2022-08-11T10:26:47.627Z,28.17
2022-08-11T10:29:37.566Z,28.19
2022-08-11T10:32:31.631Z,28.24
2022-08-11T10:35:00.296Z,28.34
2022-08-11T10:38:08.655Z,28.33
2022-08-11T10:40:16.387Z,28.41
2022-08-11T10:43:02.227Z,28.12
2022-08-11T10:45:55.525Z,28.11
2022-08-11T10:48:24.255Z,28.20
2022-08-11T10:51:10.423Z,28.41
2022-08-11T10:53:57.969Z,28.35
2022-08-11T10:56:43.419Z,28.47
2022-08-11T10:59:10.987Z,28.68
2022-08-11T11:01:44.087Z,28.40
2022-08-11T11:04:21.631Z,28.65
2022-08-11T11:07:17.519Z,28.83
2022-08-11T11:09:55.774Z,28.73
2022-08-11T11:12:55.339Z,28.73
2022-08-11T11:15:42.375Z,28.59
2022-08-11T11:18:29.320Z,28.76
2022-08-11T11:21:05.669Z,28.95
2022-08-11T11:23:55.139Z,29.00
2022-08-11T11:27:03.856Z,29.03
2022-08-11T11:30:08.772Z,29.11
2022-08-11T11:32:35.903Z,29.15
2022-08-11T11:35:36.920Z,29.09
2022-08-11T11:38:13.835Z,29.16
2022-08-11T11:40:41.446Z,28.87
2022-08-11T11:43:08.741Z,28.75
2022-08-11T11:45:35.835Z,29.25
2022-08-11T11:48:03.344Z,29.21
2022-08-11T11:50:34.541Z,28.92
2022-08-11T11:53:09.489Z,29.33
2022-08-11T11:55:36.451Z,29.15
2022-08-11T11:58:22.602Z,29.16
2022-08-11T12:01:08.609Z,29.40
2022-08-11T12:03:35.696Z,29.34
2022-08-11T12:06:06.729Z,29.48
2022-08-11T12:08:33.731Z,29.28
2022-08-11T12:11:23.507Z,28.98
2022-08-11T12:13:51.857Z,29.51
2022-08-11T12:16:33.834Z,29.43
2022-08-11T12:19:11.951Z,29.36
2022-08-11T12:22:00.929Z,29.44
2022-08-11T12:24:48.185Z,29.50
2022-08-11T12:27:24.174Z,29.38
2022-08-11T12:29:58.115Z,28.64
2022-08-11T12:32:37.524Z,29.56
2022-08-11T12:35:05.595Z,29.69
2022-08-11T12:37:46.055Z,29.96
2022-08-11T12:40:43.182Z,29.81
2022-08-11T12:43:40.787Z,29.80
2022-08-11T12:46:09.375Z,29.75
2022-08-11T12:48:58.981Z,30.06
2022-08-11T12:52:06.743Z,30.04
2022-08-11T12:54:58.074Z,30.31
2022-08-11T12:57:55.885Z,30.15
2022-08-11T13:00:41.604Z,30.32
2022-08-11T13:03:28.942Z,30.36
2022-08-11T13:06:00.241Z,30.12
2022-08-11T13:08:29.819Z,30.52
2022-08-11T13:11:17.430Z,30.45
2022-08-11T13:13:55.312Z,30.51
2022-08-11T13:16:27.821Z,30.21
2022-08-11T13:18:55.093Z,30.76
2022-08-11T13:21:22.459Z,30.53
2022-08-11T13:24:00.462Z,30.70
2022-08-11T13:26:47.191Z,30.36
2022-08-11T13:29:23.937Z,30.60
2022-08-11T13:31:51.937Z,30.52
2022-08-11T13:34:20.081Z,30.63
2022-08-11T13:36:49.664Z,30.63
2022-08-11T13:39:16.830Z,30.43
2022-08-11T13:41:44.837Z,30.89
2022-08-11T13:44:15.945Z,30.87
2022-08-11T13:46:44.542Z,30.63
2022-08-11T13:49:11.723Z,30.89
2022-08-11T13:51:38.815Z,31.08
2022-08-11T13:54:20.138Z,31.10
2022-08-11T13:56:53.126Z,30.81
2022-08-11T13:59:23.929Z,30.62
2022-08-11T14:02:22.471Z,31.12
2022-08-11T14:04:51.034Z,31.09
2022-08-11T14:07:22.495Z,30.95
2022-08-11T14:09:55.590Z,31.09
2022-08-11T14:12:45.156Z,31.12
2022-08-11T14:15:22.788Z,31.06
2022-08-11T14:18:17.062Z,30.93
2022-08-11T14:21:02.830Z,30.86
2022-08-11T14:23:38.825Z,30.96
2022-08-11T14:26:23.746Z,30.80
2022-08-11T14:29:14.896Z,31.12
2022-08-11T14:31:47.661Z,31.16
2022-08-11T14:34:15.109Z,31.15
2022-08-11T14:36:45.869Z,31.26
2022-08-11T14:39:18.446Z,30.93
2022-08-11T14:42:10.365Z,31.14
2022-08-11T14:45:03.337Z,31.04
2022-08-11T14:47:32.666Z,30.99
2022-08-11T14:50:10.733Z,31.38
2022-08-11T14:52:43.549Z,31.43
2022-08-11T14:55:28.979Z,31.06
2022-08-11T14:57:57.238Z,31.11
2022-08-11T15:00:33.063Z,31.48
2022-08-11T15:03:13.459Z,31.47
2022-08-11T15:05:58.354Z,31.05
2022-08-11T15:08:49.251Z,31.27
2022-08-11T15:11:36.568Z,31.02
2022-08-11T15:14:05.849Z,31.18
2022-08-11T15:17:02.080Z,31.35
2022-08-11T15:19:40.173Z,31.51
2022-08-11T15:22:29.234Z,31.31
2022-08-11T15:24:59.123Z,31.50
2022-08-11T15:27:44.692Z,31.34
2022-08-11T15:30:33.911Z,31.31
2022-08-11T15:33:28.941Z,31.25
2022-08-11T15:36:15.462Z,31.20
2022-08-11T15:39:02.985Z,31.49
2022-08-11T15:41:59.105Z,31.16
2022-08-11T15:45:06.059Z,31.48
2022-08-11T15:48:00.661Z,31.43
2022-08-11T15:50:33.438Z,31.10
2022-08-11T15:53:06.038Z,31.32
2022-08-11T15:55:35.236Z,31.43
2022-08-11T15:58:23.813Z,31.17
2022-08-11T16:01:09.503Z,31.10
2022-08-11T16:04:17.036Z,31.38
2022-08-11T16:06:56.573Z,30.74
2022-08-11T16:09:46.994Z,31.04
2022-08-11T16:12:17.320Z,31.27
2022-08-11T16:15:05.947Z,31.30
2022-08-11T16:17:35.315Z,31.07
2022-08-11T16:20:03.963Z,30.82
2022-08-11T16:22:43.086Z,31.17
2022-08-11T16:27:06.117Z,30.78
2022-08-11T16:28:13.937Z,30.93
2022-08-11T16:30:43.193Z,31.07
2022-08-11T16:33:47.973Z,31.07
2022-08-11T16:36:16.387Z,30.95
2022-08-11T16:38:43.344Z,30.73
2022-08-11T16:41:12.034Z,30.78
2022-08-11T16:44:00.104Z,30.87
2022-08-11T16:46:45.520Z,30.55
2022-08-11T16:49:13.214Z,30.57
2022-08-11T16:51:40.162Z,30.69
2022-08-11T16:54:07.350Z,30.77
2022-08-11T16:56:43.980Z,30.41
2022-08-11T16:59:32.062Z,30.24
2022-08-11T17:02:05.353Z,30.65
2022-08-11T17:05:00.490Z,30.79
2022-08-11T17:07:47.986Z,30.50
2022-08-11T17:10:51.214Z,30.58
2022-08-11T17:13:30.722Z,30.48
2022-08-11T17:16:13.100Z,30.53
2022-08-11T17:18:49.734Z,30.57
2022-08-11T17:21:36.224Z,30.43
2022-08-11T17:24:09.228Z,30.62
2022-08-11T17:26:59.449Z,30.64
2022-08-11T17:29:33.583Z,30.59
2022-08-11T17:32:55.834Z,30.16
2022-08-11T17:35:33.088Z,30.40
2022-08-11T17:38:20.761Z,30.44
2022-08-11T17:41:23.005Z,30.24
2022-08-11T17:44:09.522Z,30.35
2022-08-11T17:46:54.984Z,29.95
2022-08-11T17:49:22.024Z,30.09
2022-08-11T17:52:33.226Z,30.21
2022-08-11T17:55:52.258Z,30.04
2022-08-11T17:58:26.720Z,29.68
2022-08-11T18:00:54.755Z,29.75
2022-08-11T18:03:33.325Z,29.48
2022-08-11T18:06:03.564Z,29.89
2022-08-11T18:08:49.925Z,29.63
2022-08-11T18:12:10.942Z,29.42
2022-08-11T18:14:41.222Z,29.43
2022-08-11T18:17:27.026Z,29.56
2022-08-11T18:20:13.291Z,29.49
2022-08-11T18:23:00.178Z,29.36
2022-08-11T18:25:50.518Z,29.32
2022-08-11T18:28:39.634Z,28.90
2022-08-11T18:31:25.290Z,28.97
2022-08-11T18:34:12.322Z,29.20
2022-08-11T18:37:04.903Z,29.05
2022-08-11T18:39:56.570Z,28.92
2022-08-11T18:42:42.284Z,28.73
2022-08-11T18:45:39.940Z,28.45
2022-08-11T18:48:34.152Z,28.62
2022-08-11T18:51:31.487Z,28.09
2022-08-11T18:54:28.917Z,28.32
2022-08-11T18:57:16.915Z,28.06
2022-08-11T19:00:03.028Z,28.30
2022-08-11T19:02:50.128Z,28.25
2022-08-11T19:06:05.859Z,28.19
2022-08-11T19:08:47.490Z,27.52
2022-08-11T19:11:33.089Z,28.03
2022-08-11T19:14:20.132Z,27.98
2022-08-11T19:17:06.357Z,27.91
2022-08-11T19:19:51.838Z,27.73
2022-08-11T19:22:38.109Z,27.63
2022-08-11T19:25:25.704Z,27.42
2022-08-11T19:28:12.429Z,27.63
2022-08-11T19:30:58.606Z,27.21
2022-08-11T19:34:00.316Z,27.52
2022-08-11T19:36:49.612Z,27.45
2022-08-11T19:39:35.256Z,27.21
2022-08-11T19:42:20.833Z,27.01
2022-08-11T19:45:06.338Z,26.77
2022-08-11T19:48:03.401Z,27.09
2022-08-11T19:50:58.075Z,26.78
2022-08-11T19:53:43.622Z,26.72
2022-08-11T19:56:35.517Z,26.64
2022-08-11T19:59:21.597Z,26.94
2022-08-11T20:02:14.375Z,26.83
2022-08-11T20:05:01.883Z,26.07
2022-08-11T20:07:48.006Z,26.82
2022-08-11T20:10:34.983Z,26.77
2022-08-11T20:13:21.329Z,26.31
2022-08-11T20:16:07.665Z,26.66
2022-08-11T20:18:53.313Z,26.44
2022-08-11T20:21:39.194Z,26.53
2022-08-11T20:24:25.014Z,26.31
2022-08-11T20:27:18.861Z,26.26
2022-08-11T20:30:11.024Z,26.36
2022-08-11T20:32:58.935Z,26.11
2022-08-11T20:35:45.161Z,25.73
2022-08-11T20:38:30.613Z,25.98
2022-08-11T20:41:18.775Z,26.02
2022-08-11T20:44:06.503Z,25.81
2022-08-11T20:46:58.866Z,25.67
2022-08-11T20:49:53.732Z,25.53
2022-08-11T20:52:47.455Z,25.65
2022-08-11T20:55:46.346Z,25.52
2022-08-11T21:01:43.898Z,25.47
2022-08-11T21:04:30.012Z,25.44
2022-08-11T21:07:27.044Z,25.15
2022-08-11T21:10:22.892Z,25.46
2022-08-11T21:13:27.070Z,25.26
2022-08-11T21:16:25.749Z,25.31
2022-08-11T21:19:18.915Z,24.89
2022-08-11T21:22:28.069Z,24.90
2022-08-11T21:25:15.659Z,24.94
2022-08-11T21:28:01.685Z,25.05
2022-08-11T21:30:47.719Z,24.88
2022-08-11T21:33:33.371Z,24.91
2022-08-11T21:36:18.844Z,24.74
2022-08-11T21:39:04.602Z,24.65
2022-08-11T21:41:50.122Z,24.89
2022-08-11T21:44:36.276Z,24.69
2022-08-11T21:47:43.551Z,24.63
2022-08-11T21:50:29.777Z,24.64
2022-08-11T21:53:17.192Z,24.40
2022-08-11T21:56:03.751Z,24.27
2022-08-11T21:58:49.151Z,24.48
2022-08-11T22:01:34.905Z,24.37
2022-08-11T22:04:21.089Z,24.10
2022-08-11T22:07:07.624Z,24.29
2022-08-11T22:09:53.532Z,24.06
2022-08-11T22:12:44.167Z,23.88
2022-08-11T22:15:31.354Z,24.04
2022-08-11T22:18:20.013Z,23.88
2022-08-11T22:21:05.428Z,23.99
2022-08-11T22:23:53.221Z,23.71
2022-08-11T22:26:39.745Z,23.94
2022-08-11T22:29:38.013Z,23.56
2022-08-11T22:32:34.233Z,23.89
2022-08-11T22:35:20.034Z,23.38
2022-08-11T22:38:05.685Z,23.75
2022-08-11T22:40:52.382Z,23.68
2022-08-11T22:43:38.031Z,23.38
2022-08-11T22:46:23.595Z,23.57
2022-08-11T22:49:09.106Z,23.37
2022-08-11T22:51:54.825Z,23.62
2022-08-11T22:54:41.181Z,23.32
2022-08-11T22:57:27.582Z,23.32
2022-08-11T23:00:13.692Z,23.49
2022-08-11T23:03:00.351Z,22.42
2022-08-11T23:05:46.702Z,23.06
2022-08-11T23:08:34.351Z,23.30
2022-08-11T23:11:19.809Z,23.18
2022-08-11T23:14:05.590Z,23.26
2022-08-11T23:16:54.084Z,23.28
2022-08-11T23:20:06.425Z,22.77
2022-08-11T23:22:50.304Z,22.99
2022-08-11T23:25:36.758Z,22.77
2022-08-11T23:28:23.299Z,22.77
2022-08-11T23:31:10.344Z,22.81
2022-08-11T23:33:55.941Z,22.84
2022-08-11T23:39:34.310Z,22.60
2022-08-11T23:42:24.206Z,22.70
2022-08-11T23:45:10.105Z,22.93
2022-08-11T23:47:59.859Z,22.51
2022-08-11T23:50:45.916Z,22.94
2022-08-11T23:53:33.131Z,22.69
2022-08-11T23:56:21.702Z,22.83
2022-08-11T23:59:11.205Z,22.84
